createdAt,value
2023-02-22T00:21:27.701Z,1016.77
2023-02-22T00:49:53.195Z,1016.62
2023-02-22T01:18:05.352Z,1016.34
2023-02-22T01:46:31.979Z,1016.24
2023-02-22T02:14:52.088Z,1016.2
2023-02-22T02:43:10.884Z,1015.97
2023-02-22T03:11:26.751Z,1015.8
2023-02-22T03:39:50.100Z,1015.58
2023-02-22T04:08:07.911Z,1015.42
2023-02-22T04:36:23.905Z,1015.33
2023-02-22T05:04:38.762Z,1015.37
2023-02-22T05:32:58.725Z,1015.3
2023-02-22T06:01:20.828Z,1015.43
2023-02-22T06:29:36.891Z,1015.64
2023-02-22T06:58:11.153Z,1015.95
2023-02-22T07:26:39.054Z,1015.92
2023-02-22T07:55:09.744Z,1015.92
2023-02-22T08:23:36.506Z,1015.81
2023-02-22T08:51:57.704Z,1015.73
2023-02-22T09:20:11.399Z,1015.64
2023-02-22T09:48:32.591Z,1015.7
2023-02-22T10:17:22.633Z,1015.37
2023-02-22T10:45:22.482Z,1015.11
2023-02-22T11:13:57.683Z,1014.99
2023-02-22T11:42:00.100Z,1014.73
2023-02-22T12:10:45.653Z,1014.54
2023-02-22T12:39:54.507Z,1014.55
2023-02-22T13:08:09.906Z,1014.46
2023-02-22T13:37:10.924Z,1014.45
2023-02-22T14:06:14.063Z,1014.44
2023-02-22T14:35:44.528Z,1014.33
2023-02-22T15:04:09.305Z,1014.31
2023-02-22T15:32:20.781Z,1014.39
2023-02-22T16:01:21.696Z,1014.44
2023-02-22T16:29:46.762Z,1014.58
2023-02-22T16:58:37.124Z,1014.7
2023-02-22T17:27:34.714Z,1014.86
2023-02-22T17:56:39.333Z,1014.99
2023-02-22T18:25:35.749Z,1014.99
2023-02-22T18:54:34.778Z,1014.92
2023-02-22T19:23:36.987Z,1014.92
2023-02-22T19:51:50.752Z,1014.95
2023-02-22T20:20:49.915Z,1015.07
2023-02-22T20:49:43.080Z,1014.99
2023-02-22T21:18:42.573Z,1015.07
2023-02-22T21:47:03.696Z,1014.97
2023-02-22T22:16:05.173Z,1014.84
2023-02-22T22:45:03.469Z,1014.65
2023-02-22T23:14:00.924Z,1014.64
2023-02-22T23:43:06.848Z,1014.69
